sensor_id;sensor_type;location;lat;lon;timestamp;P1;durP1;ratioP1;P2;durP2;ratioP2
54959;SDS011;40860;51.710;8.736;2023-11-21T00:02:25;10.50;;;5.93;;
54959;SDS011;40860;51.710;8.736;2023-11-21T00:06:29;9.52;;;5.55;;
54959;SDS011;40860;51.710;8.736;2023-11-21T00:10:32;11.02;;;6.38;;
54959;SDS011;40860;51.710;8.736;2023-11-21T00:14:35;9.77;;;6.25;;
54959;SDS011;40860;51.710;8.736;2023-11-21T00:18:41;13.05;;;8.15;;
54959;SDS011;40860;51.710;8.736;2023-11-21T00:22:44;10.75;;;6.95;;
54959;SDS011;40860;51.710;8.736;2023-11-21T00:26:47;12.68;;;6.78;;
54959;SDS011;40860;51.710;8.736;2023-11-21T00:30:52;10.75;;;6.65;;
54959;SDS011;40860;51.710;8.736;2023-11-21T00:35:05;10.90;;;6.78;;
54959;SDS011;40860;51.710;8.736;2023-11-21T00:39:09;10.18;;;6.43;;
54959;SDS011;40860;51.710;8.736;2023-11-21T00:43:13;10.80;;;6.55;;
54959;SDS011;40860;51.710;8.736;2023-11-21T00:47:16;11.57;;;6.00;;
54959;SDS011;40860;51.710;8.736;2023-11-21T00:51:20;13.35;;;6.60;;
54959;SDS011;40860;51.710;8.736;2023-11-21T00:55:24;11.10;;;6.85;;
54959;SDS011;40860;51.710;8.736;2023-11-21T00:59:29;10.75;;;7.35;;
54959;SDS011;40860;51.710;8.736;2023-11-21T01:03:32;12.30;;;6.72;;
54959;SDS011;40860;51.710;8.736;2023-11-21T01:07:36;10.90;;;7.22;;
54959;SDS011;40860;51.710;8.736;2023-11-21T01:11:39;14.15;;;7.03;;
54959;SDS011;40860;51.710;8.736;2023-11-21T01:15:42;15.00;;;8.20;;
54959;SDS011;40860;51.710;8.736;2023-11-21T01:19:48;13.98;;;8.05;;
54959;SDS011;40860;51.710;8.736;2023-11-21T01:23:53;12.57;;;7.68;;
54959;SDS011;40860;51.710;8.736;2023-11-21T01:27:56;14.70;;;7.57;;
54959;SDS011;40860;51.710;8.736;2023-11-21T01:31:59;10.13;;;7.13;;
54959;SDS011;40860;51.710;8.736;2023-11-21T01:36:03;10.20;;;7.40;;
54959;SDS011;40860;51.710;8.736;2023-11-21T01:40:09;10.98;;;7.55;;
54959;SDS011;40860;51.710;8.736;2023-11-21T01:44:16;13.90;;;7.75;;
54959;SDS011;40860;51.710;8.736;2023-11-21T01:48:20;13.10;;;7.72;;
54959;SDS011;40860;51.710;8.736;2023-11-21T01:52:23;14.05;;;8.10;;
54959;SDS011;40860;51.710;8.736;2023-11-21T01:56:30;12.32;;;7.90;;
54959;SDS011;40860;51.710;8.736;2023-11-21T02:00:33;11.80;;;7.68;;
54959;SDS011;40860;51.710;8.736;2023-11-21T02:04:36;12.88;;;8.40;;
54959;SDS011;40860;51.710;8.736;2023-11-21T02:08:39;12.93;;;7.57;;
54959;SDS011;40860;51.710;8.736;2023-11-21T02:12:47;13.98;;;8.43;;
54959;SDS011;40860;51.710;8.736;2023-11-21T02:16:51;12.80;;;7.97;;
54959;SDS011;40860;51.710;8.736;2023-11-21T02:20:55;13.10;;;8.18;;
54959;SDS011;40860;51.710;8.736;2023-11-21T02:25:00;14.82;;;8.10;;
54959;SDS011;40860;51.710;8.736;2023-11-21T02:29:03;14.55;;;8.10;;
54959;SDS011;40860;51.710;8.736;2023-11-21T02:33:06;11.70;;;8.05;;
54959;SDS011;40860;51.710;8.736;2023-11-21T02:37:09;10.32;;;7.88;;
54959;SDS011;40860;51.710;8.736;2023-11-21T02:41:14;13.77;;;7.15;;
54959;SDS011;40860;51.710;8.736;2023-11-21T02:45:17;10.98;;;7.78;;
54959;SDS011;40860;51.710;8.736;2023-11-21T02:49:24;13.82;;;8.27;;
54959;SDS011;40860;51.710;8.736;2023-11-21T02:53:29;12.48;;;7.82;;
54959;SDS011;40860;51.710;8.736;2023-11-21T02:57:35;12.57;;;7.55;;
54959;SDS011;40860;51.710;8.736;2023-11-21T03:01:38;12.13;;;7.63;;
54959;SDS011;40860;51.710;8.736;2023-11-21T03:05:42;12.52;;;7.82;;
54959;SDS011;40860;51.710;8.736;2023-11-21T03:09:45;12.27;;;8.05;;
54959;SDS011;40860;51.710;8.736;2023-11-21T03:13:50;9.98;;;7.75;;
54959;SDS011;40860;51.710;8.736;2023-11-21T03:17:56;14.23;;;8.73;;
54959;SDS011;40860;51.710;8.736;2023-11-21T03:21:59;17.17;;;8.77;;
54959;SDS011;40860;51.710;8.736;2023-11-21T03:26:02;12.55;;;8.10;;
54959;SDS011;40860;51.710;8.736;2023-11-21T03:30:08;16.38;;;8.82;;
54959;SDS011;40860;51.710;8.736;2023-11-21T03:34:14;13.30;;;9.02;;
54959;SDS011;40860;51.710;8.736;2023-11-21T03:38:18;12.82;;;9.00;;
54959;SDS011;40860;51.710;8.736;2023-11-21T03:42:22;15.90;;;9.50;;
54959;SDS011;40860;51.710;8.736;2023-11-21T03:46:27;14.80;;;9.60;;
54959;SDS011;40860;51.710;8.736;2023-11-21T03:50:29;14.63;;;9.30;;
54959;SDS011;40860;51.710;8.736;2023-11-21T03:54:33;13.73;;;9.63;;
54959;SDS011;40860;51.710;8.736;2023-11-21T03:58:36;14.93;;;9.85;;
54959;SDS011;40860;51.710;8.736;2023-11-21T04:02:40;12.85;;;8.60;;
54959;SDS011;40860;51.710;8.736;2023-11-21T04:06:44;15.73;;;9.70;;
54959;SDS011;40860;51.710;8.736;2023-11-21T04:10:46;18.42;;;9.63;;
54959;SDS011;40860;51.710;8.736;2023-11-21T04:14:49;18.30;;;9.73;;
54959;SDS011;40860;51.710;8.736;2023-11-21T04:18:58;13.60;;;9.05;;
54959;SDS011;40860;51.710;8.736;2023-11-21T04:23:02;15.27;;;10.45;;
54959;SDS011;40860;51.710;8.736;2023-11-21T04:27:05;16.75;;;10.13;;
54959;SDS011;40860;51.710;8.736;2023-11-21T04:31:09;16.65;;;10.13;;
54959;SDS011;40860;51.710;8.736;2023-11-21T04:35:13;14.18;;;9.25;;
54959;SDS011;40860;51.710;8.736;2023-11-21T04:39:16;16.92;;;10.18;;
54959;SDS011;40860;51.710;8.736;2023-11-21T04:43:19;16.65;;;10.88;;
54959;SDS011;40860;51.710;8.736;2023-11-21T04:47:22;17.52;;;10.43;;
54959;SDS011;40860;51.710;8.736;2023-11-21T04:51:29;20.15;;;9.93;;
54959;SDS011;40860;51.710;8.736;2023-11-21T04:55:33;19.15;;;9.57;;
54959;SDS011;40860;51.710;8.736;2023-11-21T04:59:36;17.38;;;10.40;;
54959;SDS011;40860;51.710;8.736;2023-11-21T05:03:39;20.52;;;11.48;;
54959;SDS011;40860;51.710;8.736;2023-11-21T05:07:44;17.50;;;10.98;;
54959;SDS011;40860;51.710;8.736;2023-11-21T05:11:47;21.02;;;12.07;;
54959;SDS011;40860;51.710;8.736;2023-11-21T05:15:50;19.50;;;11.63;;
54959;SDS011;40860;51.710;8.736;2023-11-21T05:19:53;25.05;;;13.23;;
54959;SDS011;40860;51.710;8.736;2023-11-21T05:23:57;27.13;;;14.20;;
54959;SDS011;40860;51.710;8.736;2023-11-21T05:28:00;24.40;;;13.73;;
54959;SDS011;40860;51.710;8.736;2023-11-21T05:32:04;23.67;;;14.02;;
54959;SDS011;40860;51.710;8.736;2023-11-21T05:36:07;26.58;;;14.85;;
54959;SDS011;40860;51.710;8.736;2023-11-21T05:40:13;27.58;;;15.05;;
54959;SDS011;40860;51.710;8.736;2023-11-21T05:44:16;21.60;;;12.88;;
54959;SDS011;40860;51.710;8.736;2023-11-21T05:48:19;27.70;;;13.60;;
54959;SDS011;40860;51.710;8.736;2023-11-21T05:52:22;24.00;;;14.00;;
54959;SDS011;40860;51.710;8.736;2023-11-21T05:56:27;28.48;;;14.57;;
54959;SDS011;40860;51.710;8.736;2023-11-21T06:00:29;32.58;;;14.82;;
54959;SDS011;40860;51.710;8.736;2023-11-21T06:04:33;28.45;;;15.52;;
54959;SDS011;40860;51.710;8.736;2023-11-21T06:08:36;26.52;;;14.40;;
54959;SDS011;40860;51.710;8.736;2023-11-21T06:12:40;27.42;;;15.02;;
54959;SDS011;40860;51.710;8.736;2023-11-21T06:16:44;28.52;;;15.02;;
54959;SDS011;40860;51.710;8.736;2023-11-21T06:20:48;26.55;;;15.60;;
54959;SDS011;40860;51.710;8.736;2023-11-21T06:24:51;28.80;;;15.52;;
54959;SDS011;40860;51.710;8.736;2023-11-21T06:28:55;26.75;;;15.13;;
54959;SDS011;40860;51.710;8.736;2023-11-21T06:32:58;25.02;;;15.18;;
54959;SDS011;40860;51.710;8.736;2023-11-21T06:37:02;28.10;;;16.10;;
54959;SDS011;40860;51.710;8.736;2023-11-21T06:41:05;25.40;;;14.88;;
54959;SDS011;40860;51.710;8.736;2023-11-21T06:45:13;28.92;;;16.80;;
54959;SDS011;40860;51.710;8.736;2023-11-21T06:49:16;28.27;;;17.75;;
54959;SDS011;40860;51.710;8.736;2023-11-21T06:53:19;29.80;;;17.60;;
54959;SDS011;40860;51.710;8.736;2023-11-21T06:57:22;35.83;;;18.52;;
54959;SDS011;40860;51.710;8.736;2023-11-21T07:01:27;30.42;;;18.25;;
54959;SDS011;40860;51.710;8.736;2023-11-21T07:05:30;30.70;;;18.77;;
54959;SDS011;40860;51.710;8.736;2023-11-21T07:09:33;30.27;;;18.52;;
54959;SDS011;40860;51.710;8.736;2023-11-21T07:13:36;28.90;;;16.48;;
54959;SDS011;40860;51.710;8.736;2023-11-21T07:17:40;28.70;;;17.65;;
54959;SDS011;40860;51.710;8.736;2023-11-21T07:21:45;30.13;;;18.77;;
54959;SDS011;40860;51.710;8.736;2023-11-21T07:25:48;34.67;;;18.15;;
54959;SDS011;40860;51.710;8.736;2023-11-21T07:29:51;32.42;;;17.70;;
54959;SDS011;40860;51.710;8.736;2023-11-21T07:34:01;27.00;;;17.27;;
54959;SDS011;40860;51.710;8.736;2023-11-21T07:38:05;28.33;;;17.50;;
54959;SDS011;40860;51.710;8.736;2023-11-21T07:42:14;27.83;;;18.60;;
54959;SDS011;40860;51.710;8.736;2023-11-21T07:46:20;33.53;;;19.20;;
54959;SDS011;40860;51.710;8.736;2023-11-21T07:50:29;37.53;;;18.92;;
54959;SDS011;40860;51.710;8.736;2023-11-21T07:54:35;33.97;;;19.20;;
54959;SDS011;40860;51.710;8.736;2023-11-21T07:58:39;32.72;;;18.90;;
54959;SDS011;40860;51.710;8.736;2023-11-21T08:02:44;37.40;;;20.33;;
54959;SDS011;40860;51.710;8.736;2023-11-21T08:06:50;31.38;;;19.42;;
54959;SDS011;40860;51.710;8.736;2023-11-21T08:10:53;38.70;;;19.88;;
54959;SDS011;40860;51.710;8.736;2023-11-21T08:14:58;39.83;;;20.58;;
54959;SDS011;40860;51.710;8.736;2023-11-21T08:19:06;39.15;;;21.77;;
54959;SDS011;40860;51.710;8.736;2023-11-21T08:23:14;38.83;;;21.67;;
54959;SDS011;40860;51.710;8.736;2023-11-21T08:27:19;42.08;;;22.08;;
54959;SDS011;40860;51.710;8.736;2023-11-21T08:31:25;42.78;;;23.25;;
54959;SDS011;40860;51.710;8.736;2023-11-21T08:35:29;40.88;;;23.08;;
54959;SDS011;40860;51.710;8.736;2023-11-21T08:39:33;39.95;;;22.98;;
54959;SDS011;40860;51.710;8.736;2023-11-21T08:43:38;50.13;;;25.13;;
54959;SDS011;40860;51.710;8.736;2023-11-21T08:47:41;49.63;;;24.63;;
54959;SDS011;40860;51.710;8.736;2023-11-21T08:51:45;43.65;;;22.85;;
54959;SDS011;40860;51.710;8.736;2023-11-21T08:55:50;50.60;;;24.75;;
54959;SDS011;40860;51.710;8.736;2023-11-21T08:59:52;47.60;;;24.23;;
54959;SDS011;40860;51.710;8.736;2023-11-21T09:03:56;51.08;;;25.75;;
54959;SDS011;40860;51.710;8.736;2023-11-21T09:08:00;48.55;;;24.70;;
54959;SDS011;40860;51.710;8.736;2023-11-21T09:12:04;49.85;;;25.52;;
54959;SDS011;40860;51.710;8.736;2023-11-21T09:16:08;49.45;;;25.48;;
54959;SDS011;40860;51.710;8.736;2023-11-21T09:20:12;42.42;;;23.58;;
54959;SDS011;40860;51.710;8.736;2023-11-21T09:24:16;38.67;;;21.83;;
54959;SDS011;40860;51.710;8.736;2023-11-21T09:28:21;36.70;;;21.20;;
54959;SDS011;40860;51.710;8.736;2023-11-21T09:32:23;32.53;;;20.55;;
54959;SDS011;40860;51.710;8.736;2023-11-21T09:36:26;30.63;;;18.80;;
54959;SDS011;40860;51.710;8.736;2023-11-21T09:40:31;32.55;;;20.08;;
54959;SDS011;40860;51.710;8.736;2023-11-21T09:44:40;32.05;;;19.27;;
54959;SDS011;40860;51.710;8.736;2023-11-21T09:48:50;30.55;;;19.40;;
54959;SDS011;40860;51.710;8.736;2023-11-21T09:53:03;29.52;;;17.23;;
54959;SDS011;40860;51.710;8.736;2023-11-21T09:57:16;26.83;;;18.13;;
54959;SDS011;40860;51.710;8.736;2023-11-21T10:01:20;30.13;;;18.95;;
54959;SDS011;40860;51.710;8.736;2023-11-21T10:05:25;30.73;;;19.40;;
54959;SDS011;40860;51.710;8.736;2023-11-21T10:09:29;29.98;;;18.55;;
54959;SDS011;40860;51.710;8.736;2023-11-21T10:13:33;27.42;;;17.83;;
54959;SDS011;40860;51.710;8.736;2023-11-21T10:17:40;28.33;;;17.60;;
54959;SDS011;40860;51.710;8.736;2023-11-21T10:21:46;31.42;;;18.45;;
54959;SDS011;40860;51.710;8.736;2023-11-21T10:25:49;29.80;;;17.95;;
54959;SDS011;40860;51.710;8.736;2023-11-21T10:29:53;32.58;;;19.23;;
54959;SDS011;40860;51.710;8.736;2023-11-21T10:33:59;32.38;;;19.33;;
54959;SDS011;40860;51.710;8.736;2023-11-21T10:38:16;35.85;;;20.15;;
54959;SDS011;40860;51.710;8.736;2023-11-21T10:42:19;32.97;;;19.55;;
54959;SDS011;40860;51.710;8.736;2023-11-21T10:46:25;34.70;;;19.90;;
54959;SDS011;40860;51.710;8.736;2023-11-21T10:50:33;35.70;;;20.42;;
54959;SDS011;40860;51.710;8.736;2023-11-21T10:54:37;37.60;;;20.23;;
54959;SDS011;40860;51.710;8.736;2023-11-21T10:58:40;37.03;;;20.58;;
54959;SDS011;40860;51.710;8.736;2023-11-21T11:02:43;41.60;;;21.02;;
54959;SDS011;40860;51.710;8.736;2023-11-21T11:06:51;35.17;;;20.40;;
54959;SDS011;40860;51.710;8.736;2023-11-21T11:10:57;35.33;;;20.00;;
54959;SDS011;40860;51.710;8.736;2023-11-21T11:15:00;33.17;;;19.77;;
54959;SDS011;40860;51.710;8.736;2023-11-21T11:19:06;34.72;;;19.77;;
54959;SDS011;40860;51.710;8.736;2023-11-21T11:23:13;37.67;;;20.17;;
54959;SDS011;40860;51.710;8.736;2023-11-21T11:27:40;34.75;;;19.25;;
54959;SDS011;40860;51.710;8.736;2023-11-21T11:31:54;37.35;;;22.10;;
54959;SDS011;40860;51.710;8.736;2023-11-21T11:36:06;37.25;;;21.15;;
54959;SDS011;40860;51.710;8.736;2023-11-21T11:40:19;30.92;;;19.50;;
54959;SDS011;40860;51.710;8.736;2023-11-21T11:49:02;28.25;;;17.23;;
54959;SDS011;40860;51.710;8.736;2023-11-21T11:53:12;23.73;;;15.50;;
54959;SDS011;40860;51.710;8.736;2023-11-21T11:57:17;21.08;;;12.60;;
54959;SDS011;40860;51.710;8.736;2023-11-21T12:01:21;19.40;;;12.57;;
54959;SDS011;40860;51.710;8.736;2023-11-21T12:05:26;16.02;;;10.85;;
54959;SDS011;40860;51.710;8.736;2023-11-21T12:09:30;14.60;;;9.85;;
54959;SDS011;40860;51.710;8.736;2023-11-21T12:13:35;14.57;;;9.77;;
54959;SDS011;40860;51.710;8.736;2023-11-21T12:17:39;13.77;;;8.95;;
54959;SDS011;40860;51.710;8.736;2023-11-21T12:21:44;10.65;;;8.02;;
54959;SDS011;40860;51.710;8.736;2023-11-21T12:25:51;10.70;;;8.23;;
54959;SDS011;40860;51.710;8.736;2023-11-21T12:29:56;7.20;;;5.60;;
54959;SDS011;40860;51.710;8.736;2023-11-21T12:34:00;5.72;;;5.10;;
54959;SDS011;40860;51.710;8.736;2023-11-21T12:38:04;6.60;;;5.38;;
54959;SDS011;40860;51.710;8.736;2023-11-21T12:42:07;4.90;;;4.40;;
54959;SDS011;40860;51.710;8.736;2023-11-21T12:46:13;5.28;;;4.82;;
54959;SDS011;40860;51.710;8.736;2023-11-21T12:50:19;4.35;;;3.95;;
54959;SDS011;40860;51.710;8.736;2023-11-21T12:54:25;3.80;;;3.47;;
54959;SDS011;40860;51.710;8.736;2023-11-21T12:58:28;4.68;;;3.45;;
54959;SDS011;40860;51.710;8.736;2023-11-21T13:02:32;3.78;;;3.45;;
54959;SDS011;40860;51.710;8.736;2023-11-21T13:06:36;5.35;;;4.72;;
54959;SDS011;40860;51.710;8.736;2023-11-21T13:10:43;5.07;;;4.53;;
54959;SDS011;40860;51.710;8.736;2023-11-21T13:14:48;6.18;;;5.57;;
54959;SDS011;40860;51.710;8.736;2023-11-21T13:18:52;6.05;;;5.50;;
54959;SDS011;40860;51.710;8.736;2023-11-21T13:22:55;6.85;;;6.22;;
54959;SDS011;40860;51.710;8.736;2023-11-21T13:27:00;8.13;;;5.93;;
54959;SDS011;40860;51.710;8.736;2023-11-21T13:31:04;6.75;;;6.13;;
54959;SDS011;40860;51.710;8.736;2023-11-21T13:35:23;7.53;;;6.72;;
54959;SDS011;40860;51.710;8.736;2023-11-21T13:39:32;7.53;;;6.05;;
54959;SDS011;40860;51.710;8.736;2023-11-21T13:43:35;6.10;;;5.50;;
54959;SDS011;40860;51.710;8.736;2023-11-21T13:47:39;7.20;;;5.70;;
54959;SDS011;40860;51.710;8.736;2023-11-21T13:51:44;7.55;;;6.20;;
54959;SDS011;40860;51.710;8.736;2023-11-21T13:55:49;7.47;;;5.57;;
54959;SDS011;40860;51.710;8.736;2023-11-21T13:59:55;5.85;;;4.97;;
54959;SDS011;40860;51.710;8.736;2023-11-21T14:04:00;6.68;;;5.55;;
54959;SDS011;40860;51.710;8.736;2023-11-21T14:08:14;9.45;;;7.88;;
54959;SDS011;40860;51.710;8.736;2023-11-21T14:12:21;9.00;;;7.85;;
54959;SDS011;40860;51.710;8.736;2023-11-21T14:16:24;9.07;;;7.90;;
54959;SDS011;40860;51.710;8.736;2023-11-21T14:20:28;9.65;;;7.75;;
54959;SDS011;40860;51.710;8.736;2023-11-21T14:24:32;10.45;;;8.10;;
54959;SDS011;40860;51.710;8.736;2023-11-21T14:28:35;8.10;;;7.30;;
54959;SDS011;40860;51.710;8.736;2023-11-21T14:32:38;8.65;;;7.65;;
54959;SDS011;40860;51.710;8.736;2023-11-21T14:36:41;10.77;;;8.23;;
54959;SDS011;40860;51.710;8.736;2023-11-21T14:40:47;9.27;;;7.65;;
54959;SDS011;40860;51.710;8.736;2023-11-21T14:44:50;9.10;;;7.82;;
54959;SDS011;40860;51.710;8.736;2023-11-21T14:48:53;10.30;;;7.63;;
54959;SDS011;40860;51.710;8.736;2023-11-21T14:53:14;8.15;;;7.28;;
54959;SDS011;40860;51.710;8.736;2023-11-21T14:57:22;8.43;;;7.50;;
54959;SDS011;40860;51.710;8.736;2023-11-21T15:01:26;7.93;;;7.13;;
54959;SDS011;40860;51.710;8.736;2023-11-21T15:05:45;7.70;;;6.32;;
54959;SDS011;40860;51.710;8.736;2023-11-21T15:09:50;9.23;;;7.30;;
54959;SDS011;40860;51.710;8.736;2023-11-21T15:13:56;7.07;;;6.38;;
54959;SDS011;40860;51.710;8.736;2023-11-21T15:17:59;9.63;;;7.13;;
54959;SDS011;40860;51.710;8.736;2023-11-21T15:22:03;8.35;;;6.72;;
54959;SDS011;40860;51.710;8.736;2023-11-21T15:26:08;7.90;;;6.53;;
54959;SDS011;40860;51.710;8.736;2023-11-21T15:30:13;7.95;;;6.13;;
54959;SDS011;40860;51.710;8.736;2023-11-21T15:34:17;10.05;;;7.15;;
54959;SDS011;40860;51.710;8.736;2023-11-21T15:38:20;8.20;;;6.25;;
54959;SDS011;40860;51.710;8.736;2023-11-21T15:42:23;7.38;;;6.20;;
54959;SDS011;40860;51.710;8.736;2023-11-21T15:46:27;7.25;;;6.30;;
54959;SDS011;40860;51.710;8.736;2023-11-21T15:50:30;7.03;;;6.05;;
54959;SDS011;40860;51.710;8.736;2023-11-21T15:54:33;7.57;;;6.63;;
54959;SDS011;40860;51.710;8.736;2023-11-21T15:58:39;7.68;;;6.45;;
54959;SDS011;40860;51.710;8.736;2023-11-21T16:02:45;6.80;;;6.10;;
54959;SDS011;40860;51.710;8.736;2023-11-21T16:06:49;7.65;;;6.05;;
54959;SDS011;40860;51.710;8.736;2023-11-21T16:10:52;8.15;;;5.90;;
54959;SDS011;40860;51.710;8.736;2023-11-21T16:14:55;7.10;;;5.95;;
54959;SDS011;40860;51.710;8.736;2023-11-21T16:19:04;6.68;;;5.80;;
54959;SDS011;40860;51.710;8.736;2023-11-21T16:23:32;9.88;;;6.80;;
54959;SDS011;40860;51.710;8.736;2023-11-21T16:27:44;8.77;;;6.60;;
54959;SDS011;40860;51.710;8.736;2023-11-21T16:31:47;8.45;;;6.40;;
54959;SDS011;40860;51.710;8.736;2023-11-21T16:35:51;9.07;;;5.93;;
54959;SDS011;40860;51.710;8.736;2023-11-21T16:39:54;7.07;;;6.38;;
54959;SDS011;40860;51.710;8.736;2023-11-21T16:43:57;7.45;;;6.47;;
54959;SDS011;40860;51.710;8.736;2023-11-21T16:48:00;9.18;;;6.75;;
54959;SDS011;40860;51.710;8.736;2023-11-21T16:52:05;8.95;;;7.63;;
54959;SDS011;40860;51.710;8.736;2023-11-21T16:56:09;8.48;;;7.20;;
54959;SDS011;40860;51.710;8.736;2023-11-21T17:00:12;10.40;;;7.28;;
54959;SDS011;40860;51.710;8.736;2023-11-21T17:04:17;9.20;;;7.13;;
54959;SDS011;40860;51.710;8.736;2023-11-21T17:08:22;8.40;;;7.05;;
54959;SDS011;40860;51.710;8.736;2023-11-21T17:12:24;8.93;;;7.32;;
54959;SDS011;40860;51.710;8.736;2023-11-21T17:16:28;9.88;;;7.68;;
54959;SDS011;40860;51.710;8.736;2023-11-21T17:20:31;10.25;;;7.82;;
54959;SDS011;40860;51.710;8.736;2023-11-21T17:24:36;10.55;;;8.30;;
54959;SDS011;40860;51.710;8.736;2023-11-21T17:28:39;10.05;;;8.40;;
54959;SDS011;40860;51.710;8.736;2023-11-21T17:32:42;9.50;;;7.55;;
54959;SDS011;40860;51.710;8.736;2023-11-21T17:36:46;10.70;;;8.07;;
54959;SDS011;40860;51.710;8.736;2023-11-21T17:40:50;11.38;;;8.27;;
54959;SDS011;40860;51.710;8.736;2023-11-21T17:44:53;9.90;;;8.50;;
54959;SDS011;40860;51.710;8.736;2023-11-21T17:48:56;10.98;;;8.25;;
54959;SDS011;40860;51.710;8.736;2023-11-21T17:53:00;10.30;;;8.57;;
54959;SDS011;40860;51.710;8.736;2023-11-21T17:57:04;10.60;;;8.10;;
54959;SDS011;40860;51.710;8.736;2023-11-21T18:01:08;10.27;;;8.15;;
54959;SDS011;40860;51.710;8.736;2023-11-21T18:05:11;10.60;;;8.65;;
54959;SDS011;40860;51.710;8.736;2023-11-21T18:09:16;9.90;;;8.27;;
54959;SDS011;40860;51.710;8.736;2023-11-21T18:13:23;8.63;;;7.50;;
54959;SDS011;40860;51.710;8.736;2023-11-21T18:17:29;8.75;;;7.28;;
54959;SDS011;40860;51.710;8.736;2023-11-21T18:21:39;11.05;;;7.70;;
54959;SDS011;40860;51.710;8.736;2023-11-21T18:25:43;10.95;;;8.70;;
54959;SDS011;40860;51.710;8.736;2023-11-21T18:29:48;8.45;;;7.55;;
54959;SDS011;40860;51.710;8.736;2023-11-21T18:33:51;9.30;;;7.32;;
54959;SDS011;40860;51.710;8.736;2023-11-21T18:37:54;9.00;;;7.00;;
54959;SDS011;40860;51.710;8.736;2023-11-21T18:42:00;9.82;;;7.78;;
54959;SDS011;40860;51.710;8.736;2023-11-21T18:46:04;11.68;;;7.82;;
54959;SDS011;40860;51.710;8.736;2023-11-21T18:50:07;9.93;;;7.85;;
54959;SDS011;40860;51.710;8.736;2023-11-21T18:54:12;8.50;;;7.35;;
54959;SDS011;40860;51.710;8.736;2023-11-21T18:58:15;9.10;;;7.32;;
54959;SDS011;40860;51.710;8.736;2023-11-21T19:02:19;7.68;;;6.82;;
54959;SDS011;40860;51.710;8.736;2023-11-21T19:06:22;10.27;;;7.65;;
54959;SDS011;40860;51.710;8.736;2023-11-21T19:10:26;9.20;;;7.82;;
54959;SDS011;40860;51.710;8.736;2023-11-21T19:14:30;9.60;;;7.57;;
54959;SDS011;40860;51.710;8.736;2023-11-21T19:18:35;9.98;;;7.75;;
54959;SDS011;40860;51.710;8.736;2023-11-21T19:22:39;11.65;;;8.63;;
54959;SDS011;40860;51.710;8.736;2023-11-21T19:26:42;12.30;;;9.23;;
54959;SDS011;40860;51.710;8.736;2023-11-21T19:30:46;12.07;;;9.60;;
54959;SDS011;40860;51.710;8.736;2023-11-21T19:34:50;10.63;;;9.20;;
54959;SDS011;40860;51.710;8.736;2023-11-21T19:38:53;10.27;;;9.18;;
54959;SDS011;40860;51.710;8.736;2023-11-21T19:42:56;9.85;;;8.32;;
54959;SDS011;40860;51.710;8.736;2023-11-21T19:46:59;11.40;;;8.48;;
54959;SDS011;40860;51.710;8.736;2023-11-21T19:51:03;11.75;;;8.25;;
54959;SDS011;40860;51.710;8.736;2023-11-21T19:55:07;10.23;;;8.73;;
54959;SDS011;40860;51.710;8.736;2023-11-21T19:59:11;12.18;;;8.48;;
54959;SDS011;40860;51.710;8.736;2023-11-21T20:03:15;11.32;;;8.48;;
54959;SDS011;40860;51.710;8.736;2023-11-21T20:07:21;12.63;;;8.50;;
54959;SDS011;40860;51.710;8.736;2023-11-21T20:11:31;9.15;;;8.25;;
54959;SDS011;40860;51.710;8.736;2023-11-21T20:15:40;11.35;;;8.55;;
54959;SDS011;40860;51.710;8.736;2023-11-21T20:20:13;14.63;;;10.65;;
54959;SDS011;40860;51.710;8.736;2023-11-21T20:35:12;11.57;;;9.20;;
54959;SDS011;40860;51.710;8.736;2023-11-21T20:39:24;8.80;;;7.90;;
54959;SDS011;40860;51.710;8.736;2023-11-21T20:43:37;10.82;;;8.30;;
54959;SDS011;40860;51.710;8.736;2023-11-21T20:47:47;12.13;;;7.50;;
54959;SDS011;40860;51.710;8.736;2023-11-21T20:51:58;7.57;;;6.78;;
54959;SDS011;40860;51.710;8.736;2023-11-21T20:56:11;8.73;;;6.80;;
54959;SDS011;40860;51.710;8.736;2023-11-21T21:00:18;7.18;;;5.88;;
54959;SDS011;40860;51.710;8.736;2023-11-21T21:04:32;7.55;;;6.65;;
54959;SDS011;40860;51.710;8.736;2023-11-21T21:08:39;10.27;;;6.10;;
54959;SDS011;40860;51.710;8.736;2023-11-21T21:12:43;7.85;;;6.00;;
54959;SDS011;40860;51.710;8.736;2023-11-21T21:17:14;7.35;;;6.13;;
54959;SDS011;40860;51.710;8.736;2023-11-21T21:21:19;7.88;;;6.40;;
54959;SDS011;40860;51.710;8.736;2023-11-21T21:25:24;7.05;;;5.88;;
54959;SDS011;40860;51.710;8.736;2023-11-21T21:29:27;7.20;;;5.68;;
54959;SDS011;40860;51.710;8.736;2023-11-21T21:33:30;8.18;;;6.38;;
54959;SDS011;40860;51.710;8.736;2023-11-21T21:37:34;7.10;;;5.63;;
54959;SDS011;40860;51.710;8.736;2023-11-21T21:41:38;6.50;;;5.90;;
54959;SDS011;40860;51.710;8.736;2023-11-21T21:45:41;6.75;;;5.68;;
54959;SDS011;40860;51.710;8.736;2023-11-21T21:49:45;6.63;;;5.97;;
54959;SDS011;40860;51.710;8.736;2023-11-21T21:53:49;7.68;;;6.32;;
54959;SDS011;40860;51.710;8.736;2023-11-21T21:57:52;7.55;;;6.75;;
54959;SDS011;40860;51.710;8.736;2023-11-21T22:01:55;8.98;;;6.90;;
54959;SDS011;40860;51.710;8.736;2023-11-21T22:05:58;7.10;;;6.40;;
54959;SDS011;40860;51.710;8.736;2023-11-21T22:10:03;7.55;;;6.10;;
54959;SDS011;40860;51.710;8.736;2023-11-21T22:14:06;8.98;;;6.10;;
54959;SDS011;40860;51.710;8.736;2023-11-21T22:18:09;6.82;;;5.75;;
54959;SDS011;40860;51.710;8.736;2023-11-21T22:22:13;7.97;;;5.72;;
54959;SDS011;40860;51.710;8.736;2023-11-21T22:26:17;7.35;;;5.63;;
54959;SDS011;40860;51.710;8.736;2023-11-21T22:30:21;6.50;;;5.55;;
54959;SDS011;40860;51.710;8.736;2023-11-21T22:34:25;7.05;;;5.72;;
54959;SDS011;40860;51.710;8.736;2023-11-21T22:38:28;6.20;;;5.60;;
54959;SDS011;40860;51.710;8.736;2023-11-21T22:42:32;6.30;;;5.63;;
54959;SDS011;40860;51.710;8.736;2023-11-21T22:46:40;6.38;;;5.45;;
54959;SDS011;40860;51.710;8.736;2023-11-21T22:50:44;9.82;;;5.68;;
54959;SDS011;40860;51.710;8.736;2023-11-21T22:54:48;6.45;;;5.75;;
54959;SDS011;40860;51.710;8.736;2023-11-21T22:58:52;6.47;;;5.38;;
54959;SDS011;40860;51.710;8.736;2023-11-21T23:02:57;6.43;;;4.80;;
54959;SDS011;40860;51.710;8.736;2023-11-21T23:07:01;4.57;;;3.92;;
54959;SDS011;40860;51.710;8.736;2023-11-21T23:11:05;5.35;;;2.95;;
54959;SDS011;40860;51.710;8.736;2023-11-21T23:15:10;3.55;;;3.20;;
54959;SDS011;40860;51.710;8.736;2023-11-21T23:19:13;3.67;;;3.38;;
54959;SDS011;40860;51.710;8.736;2023-11-21T23:23:18;4.05;;;3.42;;
54959;SDS011;40860;51.710;8.736;2023-11-21T23:27:24;3.58;;;3.25;;
54959;SDS011;40860;51.710;8.736;2023-11-21T23:31:28;4.28;;;3.38;;
54959;SDS011;40860;51.710;8.736;2023-11-21T23:35:31;4.15;;;3.10;;
54959;SDS011;40860;51.710;8.736;2023-11-21T23:39:34;3.10;;;2.80;;
54959;SDS011;40860;51.710;8.736;2023-11-21T23:43:37;5.13;;;3.08;;
54959;SDS011;40860;51.710;8.736;2023-11-21T23:47:44;4.07;;;3.15;;
54959;SDS011;40860;51.710;8.736;2023-11-21T23:51:47;4.70;;;3.25;;
54959;SDS011;40860;51.710;8.736;2023-11-21T23:55:50;4.00;;;3.60;;
54959;SDS011;40860;51.710;8.736;2023-11-21T23:59:54;4.20;;;3.80;;
